Vashon, Washington
Current Conditions -  °F | °C
As of 10:21 AM on Friday 28 Nov 2014 (Local Time) from KSEA Reporting Station
Heavy Rain Heavy Rain  
Wind Chill: 40°   Ceiling: 500
Heat Index: 46°   Visibility: 2mi
Dew Point: 43°   Wind: 15mph
Humidity: 87%   Direction: 20°NNE
Pressure: 29.51"   Gusts: NA
Location:  47.45°N, 122.46°W
Report Text: KSEA 281821Z 02013KT 2SM R16L/5500VP6000FT +RA BR BKN005 OVC014 08/06 A2951 RMK AO2 PK WND 01028/1759 WSHFT 1747 P0023
Loading
Personal Weather Stations






























Interactive Weather Map New forecast layout! Learn more

10-Day Weather Forecast

Advertisements
Track Severe Weather on mobile